Terminal Aerodrome Forecast
Issued by NWS Cleveland, OH

Home | Current Version | Previous Version | Text Only | Print | Product List | Glossary On
Versions: 1 2 3 4 5 6 7 8 9 10 11 12 13 14 15 16 17 18 19 20 21 22
294
FTUS41 KCLE 111536 AAA
TAFYNG
TAF AMD
KYNG 111536Z 1116/1212 30012G20KT 3SM -SHSN OVC025
      TEMPO 1116/1120 1SM -SHSN OVC018
     FM112100 29010KT 5SM -SHSN OVC035
     FM120000 24005KT P6SM BKN035=

USA.gov is the U.S. government's official web portal to all federal, state and local government web resources and services.